createdAt,value
2018-06-11T00:00:38.872Z,99.90
2018-06-11T00:03:07.753Z,99.90
2018-06-11T00:05:36.597Z,99.90
2018-06-11T00:08:05.497Z,99.90
2018-06-11T00:10:34.409Z,99.90
2018-06-11T00:13:03.601Z,99.90
2018-06-11T00:15:32.477Z,99.90
2018-06-11T00:18:01.305Z,99.90
2018-06-11T00:20:30.224Z,99.90
2018-06-11T00:22:59.078Z,99.90
2018-06-11T00:25:27.965Z,99.90
2018-06-11T00:30:25.350Z,99.90
2018-06-11T00:32:54.262Z,99.90
2018-06-11T00:35:23.114Z,99.90
2018-06-11T00:37:52.003Z,99.90
2018-06-11T00:40:20.898Z,99.90
2018-06-11T00:42:49.815Z,99.90
2018-06-11T00:45:18.698Z,99.90
2018-06-11T00:47:47.531Z,99.90
2018-06-11T00:50:16.421Z,99.90
2018-06-11T00:52:45.339Z,99.90
2018-06-11T00:55:14.213Z,99.90
2018-06-11T00:57:43.101Z,99.90
2018-06-11T01:00:12.030Z,99.90
2018-06-11T01:02:40.961Z,99.90
2018-06-11T01:05:09.826Z,99.90
2018-06-11T01:07:38.714Z,99.90
2018-06-11T01:10:07.672Z,99.90
2018-06-11T01:12:36.545Z,99.90
2018-06-11T01:15:05.567Z,99.90
2018-06-11T01:17:34.434Z,99.90
2018-06-11T01:20:03.355Z,99.90
2018-06-11T01:22:32.221Z,99.90
2018-06-11T01:25:01.125Z,99.90
2018-06-11T01:27:30.067Z,99.90
2018-06-11T01:29:58.925Z,99.90
2018-06-11T01:32:28.079Z,99.90
2018-06-11T01:34:57.527Z,99.90
2018-06-11T01:37:26.439Z,99.90
2018-06-11T01:39:55.281Z,99.90
2018-06-11T01:42:24.110Z,99.90
2018-06-11T01:44:52.967Z,99.90
2018-06-11T01:47:21.860Z,99.90
2018-06-11T01:49:50.686Z,99.90
2018-06-11T01:52:19.549Z,99.90
2018-06-11T01:54:48.376Z,99.90
2018-06-11T01:57:17.195Z,99.90
2018-06-11T01:59:46.044Z,99.90
2018-06-11T02:02:14.877Z,99.90
2018-06-11T02:04:44.187Z,99.90
2018-06-11T02:07:13.043Z,99.90
2018-06-11T02:09:41.875Z,99.90
2018-06-11T02:12:10.785Z,99.90
2018-06-11T02:14:39.689Z,99.90
2018-06-11T02:17:08.684Z,99.90
2018-06-11T02:19:38.343Z,99.90
2018-06-11T02:22:07.165Z,99.90
2018-06-11T02:24:36.038Z,99.90
2018-06-11T02:27:04.870Z,99.90
2018-06-11T02:29:33.682Z,99.90
2018-06-11T02:32:02.468Z,99.90
2018-06-11T02:34:31.364Z,99.90
2018-06-11T02:37:00.224Z,99.90
2018-06-11T02:39:29.068Z,99.90
2018-06-11T02:41:57.904Z,99.90
2018-06-11T02:44:27.659Z,99.90
2018-06-11T02:46:56.559Z,99.90
2018-06-11T02:49:25.441Z,99.90
2018-06-11T02:51:54.291Z,99.90
2018-06-11T02:54:23.206Z,99.90
2018-06-11T02:56:52.059Z,99.90
2018-06-11T02:59:20.924Z,99.90
2018-06-11T03:01:49.739Z,99.90
2018-06-11T03:04:18.548Z,99.90
2018-06-11T03:06:47.372Z,99.90
2018-06-11T03:09:16.166Z,99.90
2018-06-11T03:11:45.004Z,99.90
2018-06-11T03:14:13.830Z,99.90
2018-06-11T03:19:11.082Z,99.90
2018-06-11T03:21:39.864Z,99.90
2018-06-11T03:24:09.314Z,99.90
2018-06-11T03:26:38.162Z,99.90
2018-06-11T03:29:06.978Z,99.90
2018-06-11T03:31:35.839Z,99.90
2018-06-11T03:34:04.641Z,99.90
2018-06-11T03:36:33.391Z,99.90
2018-06-11T03:39:03.466Z,99.90
2018-06-11T03:41:32.313Z,99.90
2018-06-11T03:44:01.833Z,99.90
2018-06-11T03:46:30.661Z,99.90
2018-06-11T03:48:59.432Z,99.90
2018-06-11T03:51:28.252Z,99.90
2018-06-11T03:53:57.066Z,99.90
2018-06-11T03:56:25.968Z,99.90
2018-06-11T03:58:54.843Z,99.90
2018-06-11T04:01:23.655Z,99.90
2018-06-11T04:03:52.464Z,99.90
2018-06-11T04:06:21.316Z,99.90
2018-06-11T04:08:50.164Z,99.90
2018-06-11T04:11:19.002Z,99.90
2018-06-11T04:13:47.878Z,99.90
2018-06-11T04:16:19.321Z,99.90
2018-06-11T04:18:48.206Z,99.90
2018-06-11T04:21:17.029Z,99.90
2018-06-11T04:23:45.851Z,99.90
2018-06-11T04:26:14.709Z,99.90
2018-06-11T04:28:43.474Z,99.90
2018-06-11T04:31:12.367Z,99.90
2018-06-11T04:33:41.185Z,99.90
2018-06-11T04:36:09.992Z,99.90
2018-06-11T04:38:38.819Z,99.90
2018-06-11T04:41:07.771Z,99.90
2018-06-11T04:43:36.591Z,99.90
2018-06-11T04:46:05.446Z,99.90
2018-06-11T04:48:34.342Z,99.90
2018-06-11T04:51:03.192Z,99.90
2018-06-11T04:53:32.038Z,99.90
2018-06-11T04:56:00.820Z,99.90
2018-06-11T04:58:29.684Z,99.90
2018-06-11T05:00:58.630Z,99.90
2018-06-11T05:03:28.143Z,99.90
2018-06-11T05:05:56.991Z,99.90
2018-06-11T05:08:25.929Z,99.90
2018-06-11T05:10:54.807Z,99.90
2018-06-11T05:13:23.619Z,99.90
2018-06-11T05:15:52.491Z,99.90
2018-06-11T05:18:21.315Z,99.90
2018-06-11T05:20:50.247Z,99.90
2018-06-11T05:23:19.130Z,99.90
2018-06-11T05:25:48.039Z,99.90
2018-06-11T05:28:17.588Z,99.90
2018-06-11T05:30:46.816Z,99.90
2018-06-11T05:33:15.758Z,99.90
2018-06-11T05:35:44.744Z,99.90
2018-06-11T05:38:13.741Z,99.90
2018-06-11T05:40:42.614Z,99.90
2018-06-11T05:43:11.567Z,99.90
2018-06-11T05:45:40.485Z,99.90
2018-06-11T05:48:09.427Z,99.90
2018-06-11T05:50:38.371Z,99.90
2018-06-11T05:53:07.223Z,99.90
2018-06-11T05:55:36.039Z,99.90
2018-06-11T05:58:05.179Z,99.90
2018-06-11T06:00:34.088Z,99.90
2018-06-11T06:05:31.486Z,99.90
2018-06-11T06:08:00.365Z,99.90
2018-06-11T06:10:29.225Z,99.90
2018-06-11T06:12:58.112Z,99.90
2018-06-11T06:15:26.983Z,99.90
2018-06-11T06:17:55.834Z,99.90
2018-06-11T06:20:25.704Z,99.90
2018-06-11T06:22:54.622Z,99.90
2018-06-11T06:25:23.577Z,99.90
2018-06-11T06:27:52.450Z,99.90
2018-06-11T06:30:21.303Z,99.90
2018-06-11T06:32:50.193Z,99.90
2018-06-11T06:35:19.129Z,99.90
2018-06-11T06:37:48.101Z,99.90
2018-06-11T06:40:16.999Z,99.90
2018-06-11T06:42:46.492Z,99.90
2018-06-11T06:45:15.378Z,99.90
2018-06-11T06:47:44.260Z,99.90
2018-06-11T06:50:13.293Z,99.90
2018-06-11T06:52:42.252Z,99.90
2018-06-11T06:55:11.188Z,99.90
2018-06-11T06:57:40.134Z,99.90
2018-06-11T07:00:09.120Z,99.90
2018-06-11T07:02:38.043Z,99.90
2018-06-11T07:05:07.067Z,99.90
2018-06-11T07:07:36.005Z,99.90
2018-06-11T07:10:05.009Z,99.90
2018-06-11T07:12:34.021Z,99.90
2018-06-11T07:15:03.079Z,99.90
2018-06-11T07:17:32.088Z,99.90
2018-06-11T07:20:00.989Z,99.90
2018-06-11T07:22:29.833Z,99.90
2018-06-11T07:24:58.701Z,99.90
2018-06-11T07:27:27.622Z,99.90
2018-06-11T07:29:56.608Z,99.90
2018-06-11T07:32:25.661Z,99.90
2018-06-11T07:34:54.622Z,99.90
2018-06-11T07:37:23.546Z,99.90
2018-06-11T07:39:52.553Z,99.90
2018-06-11T07:42:21.513Z,99.90
2018-06-11T07:44:50.486Z,99.90
2018-06-11T07:47:20.075Z,99.90
2018-06-11T07:49:49.115Z,99.90
2018-06-11T07:52:18.151Z,99.90
2018-06-11T07:54:47.045Z,99.90
2018-06-11T07:57:16.063Z,99.90
2018-06-11T07:59:45.220Z,99.90
2018-06-11T08:04:42.947Z,99.90
2018-06-11T08:07:11.853Z,99.90
2018-06-11T08:09:40.819Z,99.90
2018-06-11T08:12:09.746Z,99.90
2018-06-11T08:14:41.825Z,99.90
2018-06-11T08:17:10.843Z,99.90
2018-06-11T08:19:39.776Z,99.90
2018-06-11T08:22:08.650Z,99.90
2018-06-11T08:24:37.570Z,99.90
2018-06-11T08:27:06.652Z,99.90
2018-06-11T08:29:35.720Z,99.90
2018-06-11T08:32:05.510Z,99.90
2018-06-11T08:34:34.429Z,99.90
2018-06-11T08:37:03.444Z,99.90
2018-06-11T08:39:32.494Z,99.90
2018-06-11T08:42:01.697Z,99.90
2018-06-11T08:44:30.701Z,99.90
2018-06-11T08:46:59.703Z,99.90
2018-06-11T08:49:28.755Z,99.90
2018-06-11T08:51:57.717Z,99.90
2018-06-11T08:54:26.638Z,99.90
2018-06-11T08:56:55.561Z,99.90
2018-06-11T08:59:24.490Z,99.90
2018-06-11T09:01:53.486Z,99.90
2018-06-11T09:06:52.140Z,99.70
2018-06-11T09:09:21.066Z,99.90
2018-06-11T09:11:49.986Z,99.90
2018-06-11T09:14:18.899Z,99.90
2018-06-11T09:16:48.647Z,99.90
2018-06-11T09:19:17.613Z,99.90
2018-06-11T09:21:47.731Z,99.90
2018-06-11T09:24:16.725Z,99.90
2018-06-11T09:26:45.609Z,99.90
2018-06-11T09:29:15.255Z,99.90
2018-06-11T09:31:44.259Z,99.80
2018-06-11T09:34:13.305Z,99.60
2018-06-11T09:36:42.295Z,99.50
2018-06-11T09:39:11.220Z,99.50
2018-06-11T09:41:40.361Z,98.50
2018-06-11T09:44:09.431Z,99.70
2018-06-11T09:46:38.488Z,99.00
2018-06-11T09:49:07.636Z,98.20
2018-06-11T09:51:36.505Z,97.80
2018-06-11T09:54:05.404Z,98.90
2018-06-11T09:56:34.884Z,98.40
2018-06-11T09:59:03.894Z,98.00
2018-06-11T10:01:32.889Z,97.50
2018-06-11T10:04:01.978Z,97.30
2018-06-11T10:06:30.929Z,97.20
2018-06-11T10:08:59.817Z,97.90
2018-06-11T10:11:28.729Z,96.60
2018-06-11T10:13:57.733Z,95.90
2018-06-11T10:16:26.791Z,97.10
2018-06-11T10:18:55.794Z,96.20
2018-06-11T10:21:24.721Z,96.80
2018-06-11T10:23:53.652Z,96.80
2018-06-11T10:26:22.706Z,95.70
2018-06-11T10:28:51.640Z,96.40
2018-06-11T10:31:20.696Z,95.80
2018-06-11T10:33:49.618Z,96.00
2018-06-11T10:36:18.800Z,96.40
2018-06-11T10:38:47.986Z,96.00
2018-06-11T10:41:17.068Z,95.60
2018-06-11T10:43:46.246Z,96.00
2018-06-11T10:46:15.258Z,95.70
2018-06-11T10:48:44.123Z,95.50
2018-06-11T10:51:13.147Z,95.20
2018-06-11T10:53:41.994Z,94.70
2018-06-11T10:56:10.875Z,94.00
2018-06-11T10:58:39.789Z,93.80
2018-06-11T11:01:08.726Z,94.40
2018-06-11T11:03:37.850Z,93.10
2018-06-11T11:06:06.901Z,92.40
2018-06-11T11:08:35.804Z,94.10
2018-06-11T11:11:04.792Z,92.80
2018-06-11T11:13:33.724Z,91.60
2018-06-11T11:16:03.472Z,92.80
2018-06-11T11:18:32.399Z,93.50
2018-06-11T11:21:01.343Z,93.40
2018-06-11T11:25:58.825Z,92.40
2018-06-11T11:28:28.041Z,92.40
2018-06-11T11:30:57.115Z,92.70
2018-06-11T11:33:26.170Z,92.80
2018-06-11T11:35:55.675Z,92.50
2018-06-11T11:38:24.645Z,91.70
2018-06-11T11:40:53.621Z,91.20
2018-06-11T11:43:22.533Z,92.20
2018-06-11T11:45:51.419Z,92.30
2018-06-11T11:48:20.922Z,91.80
2018-06-11T11:50:49.893Z,91.60
2018-06-11T11:53:18.846Z,90.70
2018-06-11T11:55:47.989Z,90.20
2018-06-11T11:58:16.956Z,91.00
2018-06-11T12:00:45.874Z,90.90
2018-06-11T12:03:14.765Z,91.30
2018-06-11T12:05:43.803Z,90.90
2018-06-11T12:08:16.987Z,90.80
2018-06-11T12:10:46.241Z,91.00
2018-06-11T12:13:15.322Z,90.50
2018-06-11T12:15:44.351Z,90.30
2018-06-11T12:18:14.331Z,90.60
2018-06-11T12:20:43.373Z,90.70
2018-06-11T12:23:12.732Z,91.80
2018-06-11T12:25:42.567Z,91.20
2018-06-11T12:28:11.537Z,90.20
2018-06-11T12:30:40.427Z,90.70
2018-06-11T12:33:09.432Z,90.30
2018-06-11T12:35:38.492Z,89.00
2018-06-11T12:38:07.424Z,90.20
2018-06-11T12:40:36.941Z,90.00
2018-06-11T12:43:05.993Z,89.90
2018-06-11T12:45:35.262Z,90.50
2018-06-11T12:48:04.570Z,90.10
2018-06-11T12:50:33.480Z,90.10
2018-06-11T12:53:03.391Z,90.00
2018-06-11T12:55:32.462Z,90.40
2018-06-11T12:58:03.555Z,90.40
2018-06-11T13:00:32.481Z,89.70
2018-06-11T13:03:01.311Z,91.20
2018-06-11T13:05:32.587Z,91.60
2018-06-11T13:08:02.139Z,91.50
2018-06-11T13:10:31.083Z,91.10
2018-06-11T13:13:00.275Z,91.90
2018-06-11T13:15:29.337Z,91.60
2018-06-11T13:17:58.226Z,91.80
2018-06-11T13:20:27.261Z,91.10
2018-06-11T13:22:56.722Z,91.40
2018-06-11T13:25:25.661Z,92.10
2018-06-11T13:27:54.558Z,90.90
2018-06-11T13:30:23.648Z,91.50
2018-06-11T13:32:52.610Z,92.10
2018-06-11T13:35:21.684Z,90.60
2018-06-11T13:37:50.831Z,89.80
2018-06-11T13:40:20.798Z,90.20
2018-06-11T13:42:49.889Z,87.60
2018-06-11T13:45:18.915Z,87.50
2018-06-11T13:47:47.916Z,88.40
2018-06-11T13:50:17.000Z,87.40
2018-06-11T13:52:45.967Z,87.90
2018-06-11T13:55:15.181Z,87.10
2018-06-11T13:57:44.160Z,88.50
2018-06-11T14:00:13.034Z,89.40
2018-06-11T14:02:42.869Z,88.80
2018-06-11T14:05:12.353Z,90.50
2018-06-11T14:07:42.625Z,90.90
2018-06-11T14:10:12.753Z,89.90
2018-06-11T14:12:41.720Z,90.10
2018-06-11T14:15:10.662Z,90.30
2018-06-11T14:17:39.640Z,89.80
2018-06-11T14:20:08.663Z,90.30
2018-06-11T14:25:06.762Z,89.00
2018-06-11T14:27:38.154Z,89.60
2018-06-11T14:30:07.181Z,90.10
2018-06-11T14:32:36.281Z,90.30
2018-06-11T14:35:05.273Z,90.20
2018-06-11T14:37:34.858Z,90.10
2018-06-11T14:40:03.898Z,89.80
2018-06-11T14:42:32.853Z,89.50
2018-06-11T14:45:01.840Z,88.70
2018-06-11T14:47:30.795Z,89.90
2018-06-11T14:50:00.412Z,88.40
2018-06-11T14:52:29.796Z,89.00
2018-06-11T14:54:58.706Z,88.70
2018-06-11T14:57:27.750Z,87.00
2018-06-11T14:59:56.666Z,84.90
2018-06-11T15:02:25.695Z,85.60
2018-06-11T15:04:54.996Z,86.60
2018-06-11T15:07:23.991Z,85.70
2018-06-11T15:09:52.999Z,85.70
2018-06-11T15:12:22.104Z,85.80
2018-06-11T15:14:51.204Z,86.20
2018-06-11T15:17:20.118Z,86.80
2018-06-11T15:19:49.153Z,87.20
2018-06-11T15:22:18.080Z,86.30
2018-06-11T15:24:47.015Z,85.80
2018-06-11T15:29:44.645Z,86.20
2018-06-11T15:32:14.565Z,86.50
2018-06-11T15:34:44.107Z,86.10
2018-06-11T15:37:13.034Z,88.20
2018-06-11T15:39:41.950Z,88.10
2018-06-11T15:42:10.790Z,86.90
2018-06-11T15:44:40.164Z,87.10
2018-06-11T15:47:09.458Z,87.90
2018-06-11T15:49:38.520Z,85.70
2018-06-11T15:52:07.803Z,86.30
2018-06-11T15:54:36.815Z,86.10
2018-06-11T15:57:06.692Z,86.40
2018-06-11T15:59:35.674Z,87.40
2018-06-11T16:02:05.656Z,87.30
2018-06-11T16:07:03.093Z,86.40
2018-06-11T16:09:32.012Z,85.30
2018-06-11T16:12:00.902Z,87.20
2018-06-11T16:16:58.265Z,88.90
2018-06-11T16:19:27.234Z,89.80
2018-06-11T16:21:56.132Z,89.00
2018-06-11T16:24:24.996Z,88.80
2018-06-11T16:26:54.670Z,88.00
2018-06-11T16:29:23.528Z,89.20
2018-06-11T16:31:52.424Z,90.10
2018-06-11T16:34:22.148Z,90.00
2018-06-11T16:36:51.067Z,90.30
2018-06-11T16:39:20.048Z,90.70
2018-06-11T16:41:49.386Z,90.90
2018-06-11T16:44:18.368Z,90.60
2018-06-11T16:46:47.358Z,91.20
2018-06-11T16:49:16.611Z,91.10
2018-06-11T16:51:45.574Z,91.10
2018-06-11T16:54:14.580Z,91.40
2018-06-11T16:56:43.517Z,91.30
2018-06-11T16:59:12.356Z,91.30
2018-06-11T17:01:41.229Z,91.40
2018-06-11T17:04:10.122Z,91.50
2018-06-11T17:06:39.011Z,91.50
2018-06-11T17:09:08.943Z,91.50
2018-06-11T17:11:38.129Z,91.20
2018-06-11T17:14:06.966Z,91.20
2018-06-11T17:16:35.785Z,91.50
2018-06-11T17:19:04.624Z,91.40
2018-06-11T17:21:33.503Z,91.40
2018-06-11T17:24:02.334Z,91.50
2018-06-11T17:28:59.616Z,91.40
2018-06-11T17:31:28.462Z,91.60
2018-06-11T17:33:57.276Z,91.70
2018-06-11T17:36:26.050Z,91.60
2018-06-11T17:38:54.857Z,92.00
2018-06-11T17:41:23.668Z,91.80
2018-06-11T17:46:20.918Z,91.50
2018-06-11T17:48:49.701Z,91.90
2018-06-11T17:51:18.684Z,91.90
2018-06-11T17:53:47.665Z,92.20
2018-06-11T17:56:16.651Z,92.10
2018-06-11T17:58:46.753Z,92.30
2018-06-11T18:01:15.661Z,92.00
2018-06-11T18:03:45.028Z,92.10
2018-06-11T18:06:14.202Z,92.60
2018-06-11T18:08:43.148Z,92.40
2018-06-11T18:11:12.834Z,92.70
2018-06-11T18:13:41.788Z,92.70
2018-06-11T18:16:10.760Z,92.90
2018-06-11T18:18:39.736Z,92.90
2018-06-11T18:21:08.695Z,92.80
2018-06-11T18:23:37.575Z,93.10
2018-06-11T18:26:06.480Z,93.00
2018-06-11T18:28:35.372Z,93.60
2018-06-11T18:31:04.349Z,93.70
2018-06-11T18:33:33.905Z,93.40
2018-06-11T18:36:02.862Z,93.50
2018-06-11T18:38:31.815Z,93.60
2018-06-11T18:41:01.134Z,93.80
2018-06-11T18:43:30.036Z,94.20
2018-06-11T18:45:58.960Z,93.80
2018-06-11T18:48:27.900Z,94.00
2018-06-11T18:50:56.856Z,94.00
2018-06-11T18:53:26.178Z,94.00
2018-06-11T18:55:55.104Z,94.10
2018-06-11T18:58:24.020Z,93.90
2018-06-11T19:00:52.942Z,94.10
2018-06-11T19:03:21.879Z,94.10
2018-06-11T19:05:50.869Z,94.30
2018-06-11T19:08:19.728Z,94.30
2018-06-11T19:10:48.676Z,94.50
2018-06-11T19:13:17.653Z,94.60
2018-06-11T19:15:46.551Z,94.90
2018-06-11T19:18:15.431Z,95.10
2018-06-11T19:20:44.308Z,95.00
2018-06-11T19:23:13.191Z,95.30
2018-06-11T19:25:42.091Z,95.40
2018-06-11T19:28:10.929Z,95.60
2018-06-11T19:30:39.871Z,95.60
2018-06-11T19:33:08.898Z,95.70
2018-06-11T19:35:37.894Z,95.80
2018-06-11T19:38:06.916Z,96.20
2018-06-11T19:40:35.770Z,96.20
2018-06-11T19:43:04.666Z,96.10
2018-06-11T19:45:33.538Z,96.50
2018-06-11T19:48:02.460Z,96.40
2018-06-11T19:50:31.417Z,96.50
2018-06-11T19:53:00.336Z,96.80
2018-06-11T19:55:29.222Z,96.70
2018-06-11T19:57:58.099Z,96.80
2018-06-11T20:00:27.058Z,97.00
2018-06-11T20:02:56.028Z,97.20
2018-06-11T20:05:24.999Z,97.40
2018-06-11T20:07:53.870Z,97.50
2018-06-11T20:10:22.812Z,97.60
2018-06-11T20:12:51.656Z,97.90
2018-06-11T20:15:21.952Z,98.10
2018-06-11T20:17:51.028Z,98.20
2018-06-11T20:20:20.159Z,98.30
2018-06-11T20:22:49.380Z,98.60
2018-06-11T20:25:18.383Z,98.70
2018-06-11T20:30:16.355Z,99.10
2018-06-11T20:32:45.430Z,99.20
2018-06-11T20:35:14.379Z,99.40
2018-06-11T20:37:43.331Z,99.60
2018-06-11T20:40:12.161Z,99.70
2018-06-11T20:45:09.461Z,99.90
2018-06-11T20:47:38.479Z,99.90
2018-06-11T20:50:07.358Z,99.90
2018-06-11T20:52:36.274Z,99.90
2018-06-11T20:55:05.151Z,99.90
2018-06-11T20:57:34.181Z,99.90
2018-06-11T21:00:03.198Z,99.90
2018-06-11T21:02:32.161Z,99.90
2018-06-11T21:05:01.059Z,99.90
2018-06-11T21:07:29.959Z,99.90
2018-06-11T21:09:58.871Z,99.90
2018-06-11T21:12:27.762Z,99.90
2018-06-11T21:14:56.652Z,99.90
2018-06-11T21:17:25.605Z,99.90
2018-06-11T21:19:54.426Z,99.90
2018-06-11T21:22:23.471Z,99.90
2018-06-11T21:24:52.347Z,99.90
2018-06-11T21:27:21.275Z,99.90
2018-06-11T21:29:50.142Z,99.90
2018-06-11T21:32:19.158Z,99.90
2018-06-11T21:34:47.965Z,99.90
2018-06-11T21:37:16.814Z,99.90
2018-06-11T21:39:45.751Z,99.90
2018-06-11T21:42:14.755Z,99.90
2018-06-11T21:44:44.078Z,99.90
2018-06-11T21:47:12.961Z,99.90
2018-06-11T21:49:41.937Z,99.90
2018-06-11T21:52:10.912Z,99.90
2018-06-11T21:54:39.801Z,99.90
2018-06-11T21:57:09.101Z,99.90
2018-06-11T21:59:38.405Z,99.90
2018-06-11T22:02:07.365Z,99.90
2018-06-11T22:04:36.233Z,99.90
2018-06-11T22:07:05.198Z,99.90
2018-06-11T22:09:34.141Z,99.90
2018-06-11T22:12:03.031Z,99.90
2018-06-11T22:14:31.950Z,99.90
2018-06-11T22:17:00.875Z,99.90
2018-06-11T22:19:29.789Z,99.90
2018-06-11T22:21:58.642Z,99.90
2018-06-11T22:24:27.431Z,99.90
2018-06-11T22:26:56.424Z,99.90
2018-06-11T22:29:25.329Z,99.90
2018-06-11T22:31:54.184Z,99.90
2018-06-11T22:36:51.434Z,99.90
2018-06-11T22:39:20.284Z,99.90
2018-06-11T22:41:49.121Z,99.90
2018-06-11T22:44:18.001Z,99.90
2018-06-11T22:46:46.950Z,99.90
2018-06-11T22:49:15.830Z,99.90
2018-06-11T22:51:44.697Z,99.90
2018-06-11T22:54:13.635Z,99.90
2018-06-11T22:56:43.192Z,99.90
2018-06-11T22:59:12.067Z,99.90
2018-06-11T23:01:40.953Z,99.90
2018-06-11T23:04:09.807Z,99.90
2018-06-11T23:06:38.705Z,99.90
2018-06-11T23:09:08.252Z,99.90
2018-06-11T23:11:37.126Z,99.90
2018-06-11T23:14:06.004Z,99.90
2018-06-11T23:16:34.836Z,99.90
2018-06-11T23:19:04.198Z,99.90
2018-06-11T23:21:33.122Z,99.90
2018-06-11T23:24:02.023Z,99.90
2018-06-11T23:26:30.843Z,99.90
2018-06-11T23:28:59.801Z,99.90
2018-06-11T23:31:28.723Z,99.90
2018-06-11T23:33:57.579Z,99.90
2018-06-11T23:36:26.475Z,99.90
2018-06-11T23:38:55.314Z,99.90
2018-06-11T23:41:24.241Z,99.90
2018-06-11T23:43:53.170Z,99.90
2018-06-11T23:46:22.033Z,99.90
2018-06-11T23:48:50.933Z,99.90
2018-06-11T23:51:19.859Z,99.90
2018-06-11T23:53:48.698Z,99.90
2018-06-11T23:56:17.562Z,99.90
2018-06-11T23:58:46.433Z,99.90
